Time;durP1;ratioP1;P1;durP2;ratioP2;P2;SDS_P1;SDS_P2;PMS_P1;PMS_P2;Temp;Humidity;BMP_temperature;BMP_pressure;BME280_temperature;BME280_humidity;BME280_pressure;Samples;Min_cycle;Max_cycle;Signal;HPM_P1;HPM_P2
2023/09/01 00:02:06;;;;;;;3.50;3.00;;;;;;;12.52;90.24;100299.91;105734;275;38397;-73
2023/09/01 00:04:41;;;;;;;6.40;3.30;;;;;;;12.48;90.03;100301.33;105699;275;38296;-73
2023/09/01 00:07:15;;;;;;;4.80;3.00;;;;;;;12.44;90.09;100301.51;105387;276;38276;-75
2023/09/01 00:09:50;;;;;;;5.10;3.00;;;;;;;12.41;90.23;100299.73;105403;275;39766;-75
2023/09/01 00:12:24;;;;;;;6.60;3.00;;;;;;;12.40;90.27;100301.16;105694;275;38334;-74
2023/09/01 00:14:58;;;;;;;4.00;3.20;;;;;;;12.38;90.41;100302.65;105512;276;897033;-74
2023/09/01 00:17:32;;;;;;;4.60;3.10;;;;;;;12.38;90.40;100305.46;105424;276;38227;-74
2023/09/01 00:20:09;;;;;;;3.60;2.90;;;;;;;12.33;90.13;100301.15;105697;275;38633;-74
2023/09/01 00:22:43;;;;;;;4.50;3.00;;;;;;;12.26;90.10;100298.99;106175;275;39102;-74
2023/09/01 00:25:17;;;;;;;5.40;2.80;;;;;;;12.22;90.00;100300.63;105716;275;38941;-74
2023/09/01 00:27:51;;;;;;;5.20;3.00;;;;;;;12.19;90.24;100299.50;105709;276;38358;-74
2023/09/01 00:30:25;;;;;;;3.70;3.30;;;;;;;12.18;90.10;100296.61;106136;275;38938;-74
2023/09/01 00:32:58;;;;;;;3.40;3.10;;;;;;;12.13;90.00;100299.95;105680;275;38492;-73
2023/09/01 00:35:32;;;;;;;6.20;2.90;;;;;;;12.09;90.29;100298.23;105700;275;39079;-73
2023/09/01 00:38:06;;;;;;;5.10;3.20;;;;;;;12.06;90.27;100301.14;105687;275;38247;-74
2023/09/01 00:40:40;;;;;;;4.70;2.80;;;;;;;12.05;90.33;100301.03;105702;276;39256;-74
2023/09/01 00:43:14;;;;;;;3.70;3.00;;;;;;;12.06;90.56;100299.39;105706;275;38761;-74
2023/09/01 00:45:48;;;;;;;4.50;3.10;;;;;;;12.07;90.50;100306.36;106182;275;38276;-74
2023/09/01 00:48:22;;;;;;;3.50;3.00;;;;;;;12.04;90.42;100299.67;105563;276;171995;-74
2023/09/01 00:50:56;;;;;;;3.70;2.90;;;;;;;12.04;90.44;100302.80;105675;275;39062;-74
2023/09/01 00:53:30;;;;;;;4.00;2.70;;;;;;;12.02;90.47;100301.01;105702;276;38645;-74
2023/09/01 00:56:05;;;;;;;3.30;3.00;;;;;;;11.99;90.50;100301.65;105540;277;38352;-73
2023/09/01 00:58:39;;;;;;;4.50;2.80;;;;;;;11.98;90.66;100302.20;105547;276;38640;-73
2023/09/01 01:01:13;;;;;;;4.60;3.00;;;;;;;11.99;91.00;100307.42;105689;274;38226;-73
2023/09/01 01:03:47;;;;;;;4.20;3.20;;;;;;;12.00;91.08;100312.10;105668;275;39970;-73
2023/09/01 01:06:26;;;;;;;3.20;2.90;;;;;;;12.00;90.94;100310.52;106174;276;38818;-73
2023/09/01 01:09:11;;;;;;;5.70;3.10;;;;;;;12.00;91.03;100310.35;106180;275;38279;-73
2023/09/01 01:11:49;;;;;;;4.00;2.70;;;;;;;11.99;91.17;100308.82;105708;275;38733;-73
2023/09/01 01:14:31;;;;;;;3.50;2.70;;;;;;;11.96;90.81;100312.44;105590;276;174550;-73
2023/09/01 01:17:05;;;;;;;3.20;2.70;;;;;;;11.93;90.90;100317.29;105034;276;897536;-73
2023/09/01 01:19:50;;;;;;;6.40;3.00;;;;;;;11.92;90.99;100315.61;105719;276;38241;-73
2023/09/01 01:22:36;;;;;;;3.30;2.90;;;;;;;11.92;91.14;100312.80;106227;276;38862;-73
2023/09/01 01:25:12;;;;;;;3.80;3.00;;;;;;;11.93;91.32;100314.70;105671;276;38864;-73
2023/09/01 01:27:46;;;;;;;3.50;2.80;;;;;;;11.90;90.76;100315.50;105666;276;38515;-73
2023/09/01 01:30:20;;;;;;;5.60;3.10;;;;;;;11.84;90.59;100317.15;105698;276;38741;-73
2023/09/01 01:32:54;;;;;;;4.30;3.10;;;;;;;11.84;91.15;100317.89;105699;288;38488;-73
2023/09/01 01:35:39;;;;;;;4.30;2.80;;;;;;;11.84;90.92;100324.52;105711;276;38493;-73
2023/09/01 01:38:17;;;;;;;4.00;3.10;;;;;;;11.85;91.15;100324.29;105737;276;38356;-73
2023/09/01 01:40:56;;;;;;;4.80;2.90;;;;;;;11.83;91.04;100317.91;105680;276;37958;-73
2023/09/01 01:43:30;;;;;;;4.80;3.00;;;;;;;11.81;90.99;100315.89;106191;265;39556;-73
2023/09/01 01:46:04;;;;;;;3.50;2.70;;;;;;;11.79;91.12;100317.55;105694;276;38410;-73
2023/09/01 01:48:40;;;;;;;4.20;3.00;;;;;;;11.77;91.23;100315.16;105708;275;38254;-73
2023/09/01 01:51:14;;;;;;;4.00;3.20;;;;;;;11.80;91.41;100311.17;106175;276;38930;-73
2023/09/01 01:53:48;;;;;;;6.00;3.40;;;;;;;11.80;91.27;100312.79;105425;276;41234;-73
2023/09/01 01:56:22;;;;;;;4.00;3.30;;;;;;;11.77;91.13;100306.27;105696;275;38690;-73
2023/09/01 01:58:56;;;;;;;4.50;3.20;;;;;;;11.73;91.03;100303.45;105688;275;38427;-73
2023/09/01 02:01:30;;;;;;;4.80;2.80;;;;;;;11.72;91.28;100304.91;105676;275;38499;-73
2023/09/01 02:04:05;;;;;;;4.60;2.80;;;;;;;11.71;91.13;100308.99;106163;275;38447;-73
2023/09/01 02:06:39;;;;;;;4.00;2.70;;;;;;;11.69;91.11;100314.98;106183;276;40151;-73
2023/09/01 02:09:13;;;;;;;3.50;3.00;;;;;;;11.69;91.18;100309.58;105672;275;38967;-73
2023/09/01 02:11:47;;;;;;;4.50;3.30;;;;;;;11.68;90.97;100312.59;105715;275;38441;-73
2023/09/01 02:14:21;;;;;;;4.00;2.80;;;;;;;11.66;90.90;100313.23;105693;275;38390;-73
2023/09/01 02:16:55;;;;;;;3.50;2.80;;;;;;;11.62;90.85;100317.73;105711;276;40129;-73
2023/09/01 02:19:31;;;;;;;3.70;2.70;;;;;;;11.58;91.22;100316.67;106164;275;38699;-73
2023/09/01 02:22:05;;;;;;;3.10;2.60;;;;;;;11.58;91.35;100316.34;106170;276;39707;-73
2023/09/01 02:24:39;;;;;;;3.30;2.50;;;;;;;11.60;91.52;100315.04;106142;275;38286;-74
2023/09/01 02:27:13;;;;;;;3.20;2.90;;;;;;;11.62;91.54;100315.29;105700;275;39905;-73
2023/09/01 02:29:47;;;;;;;2.70;2.50;;;;;;;11.65;91.68;100310.30;105681;275;38380;-73
2023/09/01 02:32:21;;;;;;;4.60;3.00;;;;;;;11.63;91.73;100310.17;105711;275;38628;-74
2023/09/01 02:34:55;;;;;;;4.60;3.20;;;;;;;11.62;91.58;100308.99;105709;275;38683;-74
2023/09/01 02:37:29;;;;;;;3.60;2.90;;;;;;;11.61;91.42;100311.67;105752;275;38404;-73
2023/09/01 02:40:10;;;;;;;3.80;3.10;;;;;;;11.59;91.69;100310.86;105692;275;38509;-73
2023/09/01 02:42:44;;;;;;;4.20;2.50;;;;;;;11.61;91.73;100313.26;105738;275;39887;-73
2023/09/01 02:45:19;;;;;;;6.40;2.90;;;;;;;11.61;91.50;100317.62;106148;275;39889;-73
2023/09/01 02:47:53;;;;;;;3.60;3.00;;;;;;;11.58;91.35;100323.14;105695;276;38364;-73
2023/09/01 02:50:27;;;;;;;3.30;2.90;;;;;;;11.54;91.36;100316.15;106140;275;38798;-73
2023/09/01 02:53:01;;;;;;;4.60;3.20;;;;;;;11.52;91.58;100319.21;105700;275;38769;-73
2023/09/01 02:55:35;;;;;;;4.00;2.60;;;;;;;11.52;91.72;100317.47;106176;276;38722;-74
2023/09/01 02:58:09;;;;;;;3.30;2.50;;;;;;;11.56;92.14;100319.24;105715;275;39453;-73
2023/09/01 03:00:44;;;;;;;4.10;2.60;;;;;;;11.60;92.40;100320.27;106167;275;38516;-73
2023/09/01 03:03:19;;;;;;;4.80;2.70;;;;;;;11.68;92.77;100318.73;106178;275;39690;-73
2023/09/01 03:05:53;;;;;;;3.80;2.90;;;;;;;11.75;92.84;100315.60;105723;275;39575;-73
2023/09/01 03:08:27;;;;;;;5.90;2.70;;;;;;;11.78;92.66;100316.70;105701;276;38385;-73
2023/09/01 03:11:01;;;;;;;3.70;3.10;;;;;;;11.83;92.68;100323.70;106170;276;39004;-73
2023/09/01 03:13:35;;;;;;;2.30;2.10;;;;;;;11.87;92.49;100322.28;106170;275;38698;-73
2023/09/01 03:16:09;;;;;;;4.40;2.70;;;;;;;11.89;92.36;100320.65;105723;272;38101;-73
2023/09/01 03:18:43;;;;;;;4.70;2.90;;;;;;;11.91;92.14;100320.20;105401;276;40016;-73
2023/09/01 03:21:17;;;;;;;3.20;2.90;;;;;;;11.92;92.00;100318.39;105768;276;39056;-73
2023/09/01 03:23:51;;;;;;;4.50;2.90;;;;;;;11.90;91.77;100324.59;105543;275;39493;-74
2023/09/01 03:26:25;;;;;;;3.10;2.60;;;;;;;11.88;91.65;100333.95;105699;276;39941;-73
2023/09/01 03:28:59;;;;;;;5.20;2.80;;;;;;;11.87;91.70;100336.60;105717;276;39859;-73
2023/09/01 03:31:33;;;;;;;3.40;2.70;;;;;;;11.87;91.70;100329.98;106156;276;39906;-73
2023/09/01 03:34:09;;;;;;;4.00;2.50;;;;;;;11.88;91.70;100335.00;106074;277;38520;-74
2023/09/01 03:36:43;;;;;;;4.20;3.00;;;;;;;11.89;91.49;100335.63;105695;277;39641;-74
2023/09/01 03:39:18;;;;;;;4.60;2.80;;;;;;;11.87;91.40;100334.54;105661;276;38276;-74
2023/09/01 03:41:52;;;;;;;3.00;2.50;;;;;;;11.83;91.18;100335.20;105679;276;38474;-74
2023/09/01 03:44:26;;;;;;;5.00;2.50;;;;;;;11.79;90.85;100337.47;105687;277;39873;-74
2023/09/01 03:47:00;;;;;;;3.30;2.40;;;;;;;11.74;90.90;100330.33;105686;276;38407;-74
2023/09/01 03:49:34;;;;;;;3.20;2.80;;;;;;;11.75;91.07;100332.06;105680;276;38295;-74
2023/09/01 03:52:08;;;;;;;3.10;2.60;;;;;;;11.73;91.08;100334.05;105719;277;40228;-74
2023/09/01 03:54:42;;;;;;;3.50;2.60;;;;;;;11.71;91.17;100337.80;105352;278;39448;-74
2023/09/01 03:57:16;;;;;;;4.20;2.70;;;;;;;11.71;91.16;100335.55;105701;276;38518;-74
2023/09/01 03:59:51;;;;;;;3.70;2.80;;;;;;;11.69;91.01;100331.95;105657;276;38709;-74
2023/09/01 04:02:25;;;;;;;3.20;2.50;;;;;;;11.68;91.26;100329.02;106000;277;174466;-74
2023/09/01 04:04:59;;;;;;;4.80;2.80;;;;;;;11.71;91.72;100329.75;105676;276;38541;-74
2023/09/01 04:07:33;;;;;;;4.20;2.90;;;;;;;11.73;91.30;100333.54;106138;276;39130;-74
2023/09/01 04:10:09;;;;;;;3.90;3.00;;;;;;;11.72;91.43;100336.36;106124;284;38480;-74
2023/09/01 04:12:42;;;;;;;4.00;2.80;;;;;;;11.73;91.52;100341.20;106151;276;39391;-74
2023/09/01 04:15:16;;;;;;;3.40;2.50;;;;;;;11.75;91.39;100344.98;106120;276;39935;-74
2023/09/01 04:17:50;;;;;;;3.40;2.50;;;;;;;11.76;91.32;100338.12;106019;277;174469;-74
2023/09/01 04:20:24;;;;;;;3.10;2.50;;;;;;;11.77;91.76;100338.06;105687;277;39388;-74
2023/09/01 04:22:58;;;;;;;5.40;2.40;;;;;;;11.81;91.78;100338.80;105697;276;38257;-74
2023/09/01 04:25:33;;;;;;;4.40;2.40;;;;;;;11.85;92.09;100338.09;105655;276;38510;-74
2023/09/01 04:28:08;;;;;;;4.20;3.00;;;;;;;11.98;92.61;100338.26;105682;277;39985;-74
2023/09/01 04:30:41;;;;;;;4.40;3.00;;;;;;;12.10;92.72;100337.84;105675;276;39558;-74
2023/09/01 04:33:15;;;;;;;3.20;2.50;;;;;;;12.17;92.62;100334.23;105666;276;39638;-74
2023/09/01 04:35:57;;;;;;;3.00;2.50;;;;;;;12.25;92.67;100334.21;106139;277;38250;-74
2023/09/01 04:38:31;;;;;;;3.50;2.30;;;;;;;12.32;92.30;100342.31;105394;278;38619;-73
2023/09/01 04:41:05;;;;;;;4.90;2.80;;;;;;;12.35;92.14;100347.02;106141;277;38296;-73
2023/09/01 04:43:39;;;;;;;3.40;2.40;;;;;;;12.43;92.32;100348.64;105659;276;38415;-73
2023/09/01 04:46:13;;;;;;;3.00;2.40;;;;;;;12.46;92.05;100345.66;105389;279;40765;-73
2023/09/01 04:48:47;;;;;;;3.20;2.60;;;;;;;12.52;92.29;100343.86;105665;277;38371;-73
2023/09/01 04:51:21;;;;;;;4.30;2.40;;;;;;;12.56;92.12;100345.92;105667;276;38299;-73
2023/09/01 04:53:55;;;;;;;4.10;2.60;;;;;;;12.64;92.64;100341.88;106132;277;38302;-73
2023/09/01 04:56:30;;;;;;;4.20;2.40;;;;;;;12.73;92.60;100345.09;106139;277;40483;-73
2023/09/01 04:59:04;;;;;;;3.90;2.60;;;;;;;12.80;92.43;100337.27;105648;277;38269;-73
2023/09/01 05:01:38;;;;;;;3.20;2.20;;;;;;;12.88;92.34;100336.31;105692;276;39719;-73
2023/09/01 05:04:12;;;;;;;4.40;2.50;;;;;;;12.99;92.30;100337.76;105551;276;188612;-73
2023/09/01 05:06:46;;;;;;;2.70;2.50;;;;;;;13.08;92.24;100343.08;105671;276;40130;-73
2023/09/01 05:09:20;;;;;;;5.10;2.50;;;;;;;13.18;92.10;100347.67;105649;277;39066;-73
2023/09/01 05:11:54;;;;;;;2.60;2.40;;;;;;;13.26;91.93;100346.77;105655;277;38360;-73
2023/09/01 05:14:28;;;;;;;5.50;2.50;;;;;;;13.33;91.75;100346.77;105689;277;38851;-73
2023/09/01 05:17:02;;;;;;;3.70;2.20;;;;;;;13.39;91.55;100348.23;105679;277;38581;-74
2023/09/01 05:19:36;;;;;;;4.30;2.50;;;;;;;13.46;91.26;100349.98;105639;276;38245;-75
2023/09/01 05:22:10;;;;;;;4.30;2.30;;;;;;;13.52;90.95;100351.96;105677;276;38645;-73
2023/09/01 05:24:44;;;;;;;3.10;2.20;;;;;;;13.57;90.85;100351.19;105659;277;38262;-73
2023/09/01 05:27:19;;;;;;;3.50;2.50;;;;;;;13.64;90.70;100350.84;106133;277;38551;-73
2023/09/01 05:29:52;;;;;;;3.60;2.30;;;;;;;13.71;90.64;100351.92;105698;275;39387;-73
2023/09/01 05:32:26;;;;;;;4.30;2.20;;;;;;;13.80;90.95;100353.86;105734;276;38814;-73
2023/09/01 05:35:00;;;;;;;2.60;2.30;;;;;;;14.01;91.34;100354.70;105697;276;39676;-73
2023/09/01 05:37:34;;;;;;;3.50;2.50;;;;;;;14.45;91.81;100361.86;105576;275;174326;-73
2023/09/01 05:40:11;;;;;;;3.00;2.60;;;;;;;14.98;93.59;100364.35;106164;275;38748;-73
2023/09/01 05:42:45;;;;;;;2.80;2.10;;;;;;;15.82;95.13;100361.41;105702;276;38403;-73
2023/09/01 05:45:19;;;;;;;5.10;2.10;;;;;;;16.95;93.52;100359.02;105669;276;38441;-73
2023/09/01 05:47:56;;;;;;;2.20;1.80;;;;;;;18.06;90.18;100361.10;105737;276;38347;-73
2023/09/01 05:50:30;;;;;;;2.40;2.10;;;;;;;19.14;83.76;100364.36;106054;275;174052;-74
2023/09/01 05:53:04;;;;;;;2.60;2.10;;;;;;;20.03;77.98;100360.31;106047;276;173990;-75
2023/09/01 05:55:38;;;;;;;3.30;2.00;;;;;;;20.72;73.72;100363.52;106172;276;39185;-75
2023/09/01 05:58:11;;;;;;;2.60;2.00;;;;;;;21.25;69.83;100361.35;105705;276;39873;-75
2023/09/01 06:00:45;;;;;;;3.30;2.10;;;;;;;21.58;67.79;100359.37;105704;275;38893;-75
2023/09/01 06:03:19;;;;;;;2.10;1.90;;;;;;;21.98;65.67;100363.02;106170;275;38546;-75
2023/09/01 06:05:53;;;;;;;2.20;1.70;;;;;;;22.51;64.47;100367.19;105727;276;38390;-75
2023/09/01 06:08:28;;;;;;;3.70;1.80;;;;;;;23.11;62.07;100368.95;106181;275;38708;-75
2023/09/01 06:11:09;;;;;;;2.30;1.80;;;;;;;23.81;60.34;100370.31;105403;276;38519;-75
2023/09/01 06:13:43;;;;;;;2.10;1.40;;;;;;;24.50;57.45;100372.00;106139;275;40462;-75
2023/09/01 06:16:17;;;;;;;3.10;1.40;;;;;;;24.64;55.44;100374.58;105711;276;38592;-75
2023/09/01 06:18:51;;;;;;;2.60;1.80;;;;;;;24.47;54.31;100369.64;105578;275;173831;-75
2023/09/01 06:21:25;;;;;;;2.30;1.60;;;;;;;24.37;52.93;100367.55;105733;275;38283;-75
2023/09/01 06:23:59;;;;;;;3.40;1.50;;;;;;;24.29;53.00;100374.19;105702;276;38801;-75
2023/09/01 06:26:33;;;;;;;2.30;1.30;;;;;;;23.95;52.78;100374.37;106190;275;38288;-75
2023/09/01 06:29:07;;;;;;;2.20;1.80;;;;;;;23.35;53.03;100371.70;105672;275;39956;-75
2023/09/01 06:31:41;;;;;;;1.50;1.30;;;;;;;22.79;53.72;100375.17;105681;275;39400;-75
2023/09/01 06:34:15;;;;;;;2.50;1.60;;;;;;;22.24;55.01;100376.84;106173;276;40101;-75
2023/09/01 06:36:49;;;;;;;3.20;1.90;;;;;;;21.79;55.03;100379.08;105723;276;39375;-75
2023/09/01 06:39:24;;;;;;;2.20;1.30;;;;;;;21.42;56.23;100380.90;105710;275;38262;-76
2023/09/01 06:41:57;;;;;;;1.90;1.50;;;;;;;21.11;57.37;100390.18;106189;275;38346;-75
2023/09/01 06:44:31;;;;;;;3.70;1.90;;;;;;;20.82;57.01;100386.55;105719;275;38382;-76
2023/09/01 06:47:06;;;;;;;1.90;1.60;;;;;;;20.49;57.83;100389.66;105575;276;38217;-74
2023/09/01 06:49:42;;;;;;;2.90;1.60;;;;;;;20.22;58.83;100394.77;105436;275;38518;-74
2023/09/01 06:52:17;;;;;;;3.30;1.80;;;;;;;20.01;59.43;100394.46;105720;276;38390;-74
2023/09/01 06:54:51;;;;;;;2.90;1.80;;;;;;;19.82;59.75;100398.04;105714;275;38501;-74
2023/09/01 06:57:25;;;;;;;2.60;1.60;;;;;;;19.68;60.65;100399.66;105686;276;38973;-74
2023/09/01 06:59:59;;;;;;;2.70;2.00;;;;;;;19.59;61.44;100399.79;105722;276;38540;-74
2023/09/01 07:02:33;;;;;;;2.10;1.50;;;;;;;19.52;61.38;100402.92;105203;276;171589;-75
2023/09/01 07:05:07;;;;;;;2.60;1.60;;;;;;;19.46;61.92;100407.44;105308;276;559333;-75
2023/09/01 07:07:42;;;;;;;2.70;1.80;;;;;;;19.48;61.94;100406.42;105738;276;38218;-75
2023/09/01 07:10:16;;;;;;;3.60;1.60;;;;;;;19.61;61.72;100408.31;105719;275;39565;-75
2023/09/01 07:12:50;;;;;;;3.10;1.60;;;;;;;19.74;61.63;100406.06;105735;275;38511;-74
2023/09/01 07:15:24;;;;;;;2.40;1.50;;;;;;;19.84;60.43;100407.64;105730;276;38294;-74
2023/09/01 07:17:58;;;;;;;2.50;1.60;;;;;;;19.91;60.42;100409.24;105722;276;38375;-74
2023/09/01 07:20:32;;;;;;;2.10;1.60;;;;;;;19.99;59.75;100409.67;105415;276;38321;-74
2023/09/01 07:23:06;;;;;;;3.50;2.00;;;;;;;20.12;59.48;100404.96;105061;276;891686;-75
2023/09/01 07:25:42;;;;;;;4.20;1.80;;;;;;;20.31;59.32;100405.61;106174;264;38242;-75
2023/09/01 07:28:16;;;;;;;2.60;1.80;;;;;;;20.41;58.00;100405.02;105715;275;40010;-75
2023/09/01 07:30:51;;;;;;;2.60;1.50;;;;;;;20.34;58.02;100405.37;105763;276;38281;-75
2023/09/01 07:33:28;;;;;;;3.00;2.00;;;;;;;20.27;57.90;100406.81;105763;276;38413;-75
2023/09/01 07:36:02;;;;;;;2.10;1.30;;;;;;;20.19;58.84;100407.48;105726;276;39636;-75
2023/09/01 07:38:36;;;;;;;3.20;1.20;;;;;;;20.17;59.23;100407.07;105707;276;38219;-75
2023/09/01 07:41:10;;;;;;;4.30;1.50;;;;;;;20.22;59.38;100409.17;106178;276;38362;-75
2023/09/01 07:43:44;;;;;;;2.60;1.30;;;;;;;20.29;57.97;100413.73;105394;276;38956;-76
2023/09/01 07:46:18;;;;;;;1.70;1.10;;;;;;;20.33;57.61;100415.35;105737;276;38256;-75
2023/09/01 07:48:52;;;;;;;1.20;1.10;;;;;;;20.48;56.94;100417.55;106216;276;40306;-75
2023/09/01 07:51:27;;;;;;;1.70;1.30;;;;;;;20.71;57.00;100420.40;106199;276;39200;-75
2023/09/01 07:54:01;;;;;;;3.20;1.30;;;;;;;20.97;56.42;100422.70;105740;276;38524;-73
2023/09/01 07:56:36;;;;;;;1.60;1.10;;;;;;;21.27;56.44;100424.20;106196;276;38818;-73
2023/09/01 07:59:09;;;;;;;3.90;1.80;;;;;;;21.67;55.97;100418.08;105735;279;38246;-74
2023/09/01 08:01:45;;;;;;;1.90;1.20;;;;;;;22.06;54.80;100421.55;105587;276;38377;-73
2023/09/01 08:04:19;;;;;;;2.00;1.40;;;;;;;22.44;53.55;100419.29;105720;275;39298;-73
2023/09/01 08:06:53;;;;;;;3.40;1.30;;;;;;;22.94;53.63;100426.15;106163;276;38530;-73
2023/09/01 08:09:27;;;;;;;1.70;1.40;;;;;;;23.53;52.94;100425.13;105426;277;38255;-72
2023/09/01 08:12:01;;;;;;;4.80;1.10;;;;;;;24.10;51.72;100417.32;105756;275;38506;-72
2023/09/01 08:14:37;;;;;;;1.90;1.20;;;;;;;24.71;50.21;100421.48;105723;276;38495;-72
2023/09/01 08:17:11;;;;;;;1.70;0.90;;;;;;;25.35;49.48;100415.28;105675;276;38531;-72
2023/09/01 08:19:48;;;;;;;1.80;1.00;;;;;;;26.13;47.74;100413.44;105712;276;39395;-72
2023/09/01 08:22:22;;;;;;;1.50;1.00;;;;;;;26.94;44.98;100413.73;105739;276;38482;-72
2023/09/01 08:24:56;;;;;;;2.20;1.10;;;;;;;27.64;43.82;100416.15;105713;276;39433;-72
2023/09/01 08:27:33;;;;;;;3.20;1.40;;;;;;;28.25;42.17;100407.36;105741;276;39654;-69
2023/09/01 08:30:09;;;;;;;1.90;0.90;;;;;;;28.76;40.83;100408.49;106138;276;38963;-69
2023/09/01 08:32:45;;;;;;;2.80;0.80;;;;;;;29.28;40.42;100409.13;105741;276;38320;-72
2023/09/01 08:35:19;;;;;;;1.70;0.70;;;;;;;29.79;37.60;100408.71;105727;275;38518;-72
2023/09/01 08:37:53;;;;;;;2.90;0.90;;;;;;;30.04;37.74;100411.06;105735;275;38389;-72
2023/09/01 08:40:27;;;;;;;2.00;0.80;;;;;;;30.29;36.49;100418.13;105725;275;38685;-72
2023/09/01 08:43:02;;;;;;;1.90;0.90;;;;;;;30.49;35.53;100414.13;105733;275;38335;-72
2023/09/01 08:45:35;;;;;;;1.70;0.70;;;;;;;30.67;34.44;100410.54;105441;276;39624;-72
2023/09/01 08:48:10;;;;;;;1.50;0.80;;;;;;;30.80;34.07;100416.80;106147;275;39653;-71
2023/09/01 08:50:44;;;;;;;1.60;0.80;;;;;;;30.69;33.44;100416.44;106160;276;38306;-71
2023/09/01 08:53:18;;;;;;;2.50;1.00;;;;;;;30.51;33.60;100413.98;105689;275;39632;-73
2023/09/01 08:55:52;;;;;;;1.90;0.70;;;;;;;30.60;33.44;100414.39;105697;275;39472;-72
2023/09/01 08:58:26;;;;;;;1.70;0.90;;;;;;;30.64;33.88;100413.65;106166;276;39478;-71
2023/09/01 09:01:01;;;;;;;1.00;0.60;;;;;;;30.76;33.50;100412.46;106161;275;38365;-71
2023/09/01 09:03:36;;;;;;;1.80;0.90;;;;;;;30.73;33.83;100413.79;105723;275;38623;-71
2023/09/01 09:06:10;;;;;;;0.90;0.70;;;;;;;30.59;33.86;100414.55;105696;276;38525;-71
2023/09/01 09:08:45;;;;;;;2.90;1.40;;;;;;;30.65;34.19;100409.89;105708;275;38270;-71
2023/09/01 09:11:20;;;;;;;2.40;1.40;;;;;;;30.68;33.90;100413.43;105545;276;38547;-71
2023/09/01 09:13:54;;;;;;;1.40;1.00;;;;;;;30.54;33.63;100413.35;105715;275;38704;-71
2023/09/01 09:16:29;;;;;;;1.30;0.90;;;;;;;30.57;33.81;100412.27;105690;275;39512;-71
2023/09/01 09:19:12;;;;;;;1.30;0.80;;;;;;;30.54;33.92;100421.33;105370;276;40299;-71
2023/09/01 09:21:48;;;;;;;1.70;0.70;;;;;;;30.23;32.53;100415.68;105715;275;38706;-71
2023/09/01 09:24:38;;;;;;;3.20;1.10;;;;;;;30.01;33.27;100416.49;105678;275;38269;-71
2023/09/01 09:27:18;;;;;;;1.60;0.80;;;;;;;29.74;33.71;100415.95;105681;276;38388;-71
2023/09/01 09:29:51;;;;;;;1.00;0.90;;;;;;;29.57;34.15;100414.55;106151;276;39431;-72
2023/09/01 09:32:26;;;;;;;2.50;1.10;;;;;;;29.33;34.13;100420.92;105684;275;38224;-71
2023/09/01 09:35:19;;;;;;;1.70;1.00;;;;;;;29.21;34.69;100421.81;106200;291;40188;-71
2023/09/01 09:38:00;;;;;;;1.80;1.00;;;;;;;28.90;35.15;100424.93;105699;275;39466;-70
2023/09/01 09:40:34;;;;;;;1.50;0.80;;;;;;;28.89;35.51;100426.31;105706;276;41034;-70
2023/09/01 09:43:10;;;;;;;1.90;0.70;;;;;;;28.86;34.78;100424.61;105697;276;38551;-72
2023/09/01 09:45:44;;;;;;;1.10;0.80;;;;;;;28.66;35.31;100427.17;105429;276;38335;-72
2023/09/01 09:48:19;;;;;;;1.50;0.90;;;;;;;28.42;35.26;100418.62;105429;278;39457;-73
2023/09/01 09:50:57;;;;;;;1.70;0.90;;;;;;;28.11;35.69;100419.02;105401;276;38784;-73
2023/09/01 09:53:32;;;;;;;1.60;0.80;;;;;;;27.79;36.51;100421.51;105687;276;38327;-72
2023/09/01 09:56:26;;;;;;;1.70;0.80;;;;;;;27.44;36.12;100422.08;105418;277;38876;-74
2023/09/01 09:59:02;;;;;;;1.50;0.70;;;;;;;26.98;36.21;100422.15;106209;276;39048;-75
2023/09/01 10:01:43;;;;;;;2.00;0.90;;;;;;;26.68;37.12;100425.11;105703;276;38419;-74
2023/09/01 10:04:18;;;;;;;2.30;0.90;;;;;;;26.40;37.37;100429.52;105691;276;38325;-74
2023/09/01 10:06:53;;;;;;;1.40;0.80;;;;;;;26.14;38.19;100426.05;105605;276;171243;-74
2023/09/01 10:09:29;;;;;;;1.90;1.00;;;;;;;25.96;38.58;100428.42;105722;276;39842;-74
2023/09/01 10:12:05;;;;;;;;;;;;;;;25.72;38.25;100431.54;105731;276;38234;-73
2023/09/01 10:14:49;;;;;;;1.30;0.70;;;;;;;25.42;38.27;100442.96;105410;276;39108;-73
2023/09/01 10:17:25;;;;;;;1.50;0.90;;;;;;;25.26;39.79;100441.02;105412;276;38437;-74
2023/09/01 10:20:00;;;;;;;2.10;0.80;;;;;;;25.15;40.13;100437.19;105694;276;38313;-74
2023/09/01 10:22:38;;;;;;;4.20;1.10;;;;;;;25.07;39.94;100441.59;105713;276;38798;-75
2023/09/01 10:25:16;;;;;;;1.90;0.80;;;;;;;24.98;40.08;100438.86;105699;288;38240;-75
2023/09/01 10:28:10;;;;;;;2.00;0.90;;;;;;;24.94;40.27;100432.42;105725;276;39654;-74
2023/09/01 10:30:45;;;;;;;1.10;0.80;;;;;;;24.80;39.88;100428.50;105650;276;38439;-74
2023/09/01 10:33:27;;;;;;;3.50;0.90;;;;;;;24.71;40.60;100433.65;105675;277;39599;-74
2023/09/01 10:36:03;;;;;;;0.90;0.60;;;;;;;24.64;40.36;100435.75;105672;277;38471;-74
2023/09/01 10:38:44;;;;;;;2.20;0.70;;;;;;;24.51;40.71;100435.95;105689;277;39598;-73
2023/09/01 10:41:21;;;;;;;1.30;0.70;;;;;;;24.37;40.68;100434.59;105663;276;38270;-74
2023/09/01 10:43:59;;;;;;;1.20;0.90;;;;;;;24.32;40.92;100434.81;105657;276;38379;-74
2023/09/01 10:46:33;;;;;;;2.00;1.20;;;;;;;24.30;41.09;100429.48;105657;277;38272;-74
2023/09/01 10:49:09;;;;;;;1.20;0.80;;;;;;;24.21;41.50;100427.17;105681;276;38941;-75
2023/09/01 10:51:46;;;;;;;1.70;1.00;;;;;;;24.25;42.14;100429.14;105668;277;39462;-74
2023/09/01 10:54:44;;;;;;;1.80;0.90;;;;;;;24.36;42.10;100427.42;105688;277;38796;-74
2023/09/01 10:57:19;;;;;;;2.70;0.90;;;;;;;24.46;41.41;100433.21;105618;277;38358;-74
2023/09/01 10:59:53;;;;;;;1.80;0.80;;;;;;;24.49;41.30;100428.80;105686;276;38227;-75
2023/09/01 11:02:28;;;;;;;1.20;0.90;;;;;;;24.48;40.76;100425.73;106131;277;39134;-75
2023/09/01 11:05:03;;;;;;;1.70;1.00;;;;;;;24.48;40.83;100423.73;105358;277;38270;-75
2023/09/01 11:10:38;;;;;;;5.00;1.20;;;;;;;24.33;41.06;100423.49;101835;304;547166;-72
2023/09/01 11:13:20;;;;;;;2.80;1.10;;;;;;;24.37;41.42;100423.73;103347;283;39893;-74
2023/09/01 11:15:57;;;;;;;1.80;0.90;;;;;;;24.44;41.84;100423.92;103357;283;39474;-74
2023/09/01 11:18:30;;;;;;;1.80;0.90;;;;;;;24.54;41.55;100417.31;103378;283;38514;-72
2023/09/01 11:21:05;;;;;;;1.90;0.90;;;;;;;24.53;40.92;100423.11;103359;283;39411;-74
2023/09/01 11:23:41;;;;;;;2.40;0.90;;;;;;;24.43;39.97;100424.92;103077;279;729969;-73
2023/09/01 11:26:16;;;;;;;1.40;1.00;;;;;;;24.31;40.40;100428.71;103816;278;38537;-75
2023/09/01 11:28:53;;;;;;;2.80;1.00;;;;;;;24.15;40.68;100425.94;103774;278;39401;-75
2023/09/01 11:31:37;;;;;;;3.60;1.10;;;;;;;24.06;41.01;100428.27;103745;278;38337;-73
2023/09/01 11:34:11;;;;;;;2.70;0.80;;;;;;;23.96;40.26;100430.77;103808;278;38342;-75
2023/09/01 11:36:50;;;;;;;3.30;1.70;;;;;;;23.87;40.68;100425.39;103768;278;38691;-74
2023/09/01 11:39:26;;;;;;;1.10;0.80;;;;;;;23.84;41.13;100424.27;103802;278;38963;-75
2023/09/01 11:42:03;;;;;;;1.70;1.10;;;;;;;23.79;40.97;100426.84;103830;278;38440;-73
2023/09/01 11:44:37;;;;;;;1.60;1.00;;;;;;;23.69;40.99;100428.98;103785;275;39427;-74
2023/09/01 11:47:16;;;;;;;2.20;1.20;;;;;;;23.60;40.94;100428.88;103754;278;39139;-73
2023/09/01 11:49:50;;;;;;;2.10;1.00;;;;;;;23.48;41.11;100428.73;103672;278;174640;-73
2023/09/01 11:52:26;;;;;;;4.60;1.20;;;;;;;23.44;41.89;100429.45;103756;278;38704;-71
2023/09/01 11:55:00;;;;;;;2.20;1.00;;;;;;;23.40;41.84;100425.56;103784;278;38957;-72
2023/09/01 11:57:34;;;;;;;2.40;1.00;;;;;;;23.38;41.84;100424.81;103800;278;38510;-73
2023/09/01 12:00:13;;;;;;;3.30;1.30;;;;;;;23.32;41.20;100423.65;103799;278;38235;-74
2023/09/01 12:02:46;;;;;;;1.70;1.00;;;;;;;23.23;41.42;100423.74;103831;278;38486;-73
2023/09/01 12:05:21;;;;;;;3.30;1.30;;;;;;;23.15;41.60;100421.17;103762;278;38403;-75